• Join FlightAware (Why Join?)
  • Login
  • US Flag 
01:20PM EDT


 

Airport Tracker/Info


-or-


 

Live Flight TrackerFlight Track Log ✈ XOJ552 ✈ 23-Jun-2013 ✈ TJSJ / SJU - KPBI

Flight Track Log - Related Links

Times and Time Zones

All times are in EDT time to prevent confusion due to time zone crossing. See the XOJ552 flight status page for this flight to view local times or setup timezone preferences in your user account.

Time Position Orientation Groundspeed Altitude Reporting Facility
EDT Latitude Longitude Course Direction KTS MPH feet Rate Location/Type
11:08AM 18.4333 -65.9667 342° North 160 184 1,800  Level San Juan Center
11:09AM 18.4833 -65.9833 342° North 250 288 5,000 3,480 Climbing San Juan Center
11:11AM 18.6000 -66.1000 317° Northwest 300 345 12,300 3,300 Climbing San Juan Center
11:12AM 18.6667 -66.1833 310° West 350 403 15,000 2,700 Climbing San Juan Center
11:13AM 18.7333 -66.2667 310° West 380 437 17,800 2,640 Climbing San Juan Center
11:14AM 18.8000 -66.3333 317° Northwest 380 437 20,300 2,580 Climbing San Juan Center
11:15AM 18.8833 -66.4167 317° Northwest 400 460 23,000 2,580 Climbing San Juan Center
11:16AM 18.9667 -66.5167 311° West 410 472 25,600 2,460 Climbing San Juan Center
11:17AM 19.0500 -66.6000 317° Northwest 420 483 28,000 2,100 Climbing San Juan Center
11:18AM 19.1333 -66.7000 311° West 430 495 29,800 1,740 Climbing San Juan Center
11:19AM 19.2167 -66.8000 311° West 450 518 31,600 1,620 Climbing San Juan Center
11:20AM 19.3000 -66.9000 311° West 460 529 33,100 1,380 Climbing San Juan Center
11:21AM 19.3833 -67.0000 311° West 470 541 34,400 1,380 Climbing San Juan Center
11:22AM 19.4667 -67.1167 307° West 470 541 36,000 1,860 Climbing San Juan Center
11:23AM 19.5333 -67.2167 305° West 450 518 38,200 1,920 Climbing San Juan Center
11:24AM 19.6167 -67.3167 312° West 460 529 39,900 1,680 Climbing San Juan Center
11:25AM 19.7000 -67.4000 317° Northwest 430 495 41,600 1,500 Climbing San Juan Center
11:26AM 19.7667 -67.5000 305° West 420 483 43,000 660 Climbing San Juan Center
11:27AM 19.8333 -67.6000 305° West 420 483 43,000  Level San Juan Center
11:28AM 19.9000 -67.7000 305° West 440 506 43,000  Level San Juan Center
11:29AM 20.0000 -67.8167 312° West 460 529 43,000  Level San Juan Center
11:30AM 20.0667 -67.9000 310° West 440 506 43,000  Level San Juan Center
11:31AM 20.1500 -68.0167 307° West 440 506 43,000  Level San Juan Center
11:32AM 20.2031 -68.1019 304° West 452 520 43,000  Level Miami Center
11:33AM 20.2675 -68.2103 302° West 442 509 43,000  Level Miami Center
11:34AM 20.3558 -68.3064 314° West 542 624 43,000  Level Miami Center
11:35AM 20.4283 -68.4122 306° West 486 559 43,000  Level Miami Center
11:36AM 20.4886 -68.5256 300° West 457 526 43,000  Level Miami Center
11:37AM 20.5547 -68.6342 303° West 443 510 43,000  Level Miami Center
11:38AM 20.6169 -68.7456 301° West 443 510 43,000  Level Miami Center
11:39AM 20.6808 -68.8544 302° West 443 510 43,000  Level Miami Center
11:40AM 20.7428 -68.9661 301° West 437 503 43,000  Level Miami Center
11:41AM 20.8086 -69.0753 303° West 437 503 43,000  Level Miami Center
11:42AM 20.8767 -69.1842 304° West 437 503 43,000  Level Miami Center
11:43AM 20.9406 -69.2981 301° West 437 503 43,000  Level Miami Center
11:44AM 21.0111 -69.4208 302° West 437 503 43,000  Level Miami Center
11:45AM 21.0767 -69.5303 303° West 437 503 43,000  Level Miami Center
11:46AM 21.1406 -69.6467 300° West 442 509 43,000  Level Miami Center
11:47AM 21.2061 -69.7567 303° West 442 509 43,000  Level Miami Center
11:48AM 21.2675 -69.8711 300° West 442 509 43,000  Level Miami Center
11:49AM 21.3331 -69.9811 303° West 442 509 43,000  Level Miami Center
11:50AM 21.3964 -70.0958 301° West 442 509 43,000  Level Miami Center
11:51AM 21.4642 -70.2106 302° West 442 509 43,000  Level Miami Center
11:52AM 21.5292 -70.3211 302° West 442 509 43,000  Level Miami Center
11:53AM 21.5925 -70.4339 301° West 442 509 43,000  Level Miami Center
11:54AM 21.6511 -70.5403 301° West 442 509 43,000  Level Miami Center
11:55AM 21.7181 -70.6508 303° West 442 509 43,000  Level Miami Center
11:56AM 21.7811 -70.7664 300° West 442 509 43,000  Level Miami Center
11:57AM 21.8483 -70.8817 302° West 447 514 43,000  Level Miami Center
11:58AM 21.9111 -70.9950 301° West 447 514 43,000  Level Miami Center
11:59AM 21.9758 -71.1086 302° West 447 514 43,000  Level Miami Center
12:00PM 22.0408 -71.2242 301° West 452 520 43,000  Level Miami Center
12:01PM 22.1056 -71.3403 301° West 452 520 43,000  Level Miami Center
12:02PM 22.1703 -71.4539 302° West 452 520 43,000  Level Miami Center
12:03PM 22.2347 -71.5700 301° West 452 520 43,000  Level Miami Center
12:04PM 22.2972 -71.6886 300° West 452 520 43,000  Level Miami Center
12:05PM 22.3639 -71.8072 301° West 457 526 43,000  Level Miami Center
12:06PM 22.4281 -71.9192 302° West 457 526 43,000  Level Miami Center
12:07PM 22.4925 -72.0381 300° West 457 526 43,000  Level Miami Center
12:08PM 22.5567 -72.1547 301° West 457 526 43,000  Level Miami Center
12:09PM 22.6228 -72.2717 302° West 457 526 43,000  Level Miami Center
12:10PM 22.6847 -72.3864 300° West 457 526 43,000  Level Miami Center
12:11PM 22.7489 -72.5036 301° West 457 526 43,000  Level Miami Center
12:12PM 22.8167 -72.6183 303° West 457 526 43,000  Level Miami Center
12:13PM 22.8764 -72.7381 298° West 452 520 43,000  Level Miami Center
12:14PM 22.9444 -72.8553 302° West 452 520 43,000  Level Miami Center
12:15PM 23.0081 -72.9731 300° West 452 520 43,000  Level Miami Center
12:16PM 23.0614 -73.1022 294° West 458 527 43,000  Level Miami Center
12:17PM 23.1247 -73.2178 301° West 458 527 43,000  Level Miami Center
12:18PM 23.1903 -73.3381 301° West 453 521 43,000  Level Miami Center
12:19PM 23.2536 -73.4561 300° West 453 521 43,000  Level Miami Center
12:20PM 23.3147 -73.5764 299° West 453 521 43,000  Level Miami Center
12:21PM 23.3800 -73.6925 302° West 453 521 43,000  Level Miami Center
12:22PM 23.4411 -73.8156 298° West 458 527 43,000  Level Miami Center
12:23PM 23.5081 -73.9339 302° West 458 527 43,000  Level Miami Center
12:24PM 23.5689 -74.0550 299° West 458 527 43,000  Level Miami Center
12:25PM 23.6339 -74.1758 300° West 458 527 43,000  Level Miami Center
12:26PM 23.6986 -74.2947 301° West 458 527 43,000  Level Miami Center
12:27PM 23.7678 -74.4250 300° West 453 521 43,000  Level Miami Center
12:28PM 23.8281 -74.5442 299° West 453 521 43,000  Level Miami Center
12:29PM 23.8906 -74.6636 300° West 453 521 43,000  Level Miami Center
12:30PM 23.9550 -74.7853 300° West 458 527 43,000  Level Miami Center
12:31PM 24.0172 -74.9069 299° West 458 527 43,000  Level Miami Center
12:32PM 24.0772 -75.0197 300° West 463 533 43,000  Level Miami Center
12:33PM 24.1414 -75.1442 299° West 463 533 43,000  Level Miami Center
12:34PM 24.2033 -75.2642 300° West 463 533 43,000  Level Miami Center
12:35PM 24.2672 -75.3886 299° West 463 533 43,000  Level Miami Center
12:36PM 24.3289 -75.5133 299° West 463 533 43,000  Level Miami Center
12:37PM 24.3928 -75.6358 300° West 463 533 43,000  Level Miami Center
12:38PM 24.4544 -75.7561 299° West 458 527 43,000  Level Miami Center
12:39PM 24.5178 -75.8767 300° West 452 520 43,000  Level Miami Center
12:40PM 24.5772 -76.0019 298° West 457 526 43,000  Level Miami Center
12:41PM 24.6383 -76.1225 299° West 457 526 43,000  Level Miami Center
12:42PM 24.7081 -76.2547 300° West 457 526 43,000  Level Miami Center
12:43PM 24.7669 -76.3736 299° West 452 520 43,000  Level Miami Center
12:44PM 24.8281 -76.4947 299° West 452 520 43,000  Level Miami Center
12:45PM 24.8867 -76.6161 298° West 452 520 43,000  Level Miami Center
12:46PM 24.9494 -76.7372 300° West 457 526 43,000  Level Miami Center
12:47PM 25.0103 -76.8611 298° West 457 526 43,000  Level Miami Center
12:48PM 25.0708 -76.9828 299° West 457 526 43,000  Level Miami Center
12:49PM 25.1333 -77.1067 299° West 457 526 43,000 -780 Level Miami Center
12:50PM 25.1936 -77.2239 300° West 452 520 41,500 -2,160 Descending Miami Center
12:51PM 25.2539 -77.3483 298° West 452 520 38,700 -2,820 Descending Miami Center
12:52PM 25.3119 -77.4703 298° West 452 520 35,900 -2,640 Descending Miami Center
12:53PM 25.3617 -77.5764 297° West 452 520 33,500 -2,640 Descending Miami Center
12:54PM 25.4239 -77.6986 299° West 452 520 30,700 -2,700 Descending Miami Center
12:55PM 25.4856 -77.8256 298° West 457 526 28,100 -1,380 Descending Miami Center
12:56PM 25.5475 -77.9575 298° West 462 532 28,000 -600 Descending Miami Center
12:57PM 25.6111 -78.0872 299° West 468 539 26,900 -1,140 Descending Miami Center
12:58PM 25.6728 -78.2169 298° West 474 545 25,800 -1,140 Descending Miami Center
12:59PM 25.7403 -78.3536 299° West 474 545 24,700 -1,260 Descending Miami Center
01:00PM 25.8017 -78.4792 299° West 469 540 23,300 -1,320 Descending Miami Center
01:01PM 25.8608 -78.6047 298° West 469 540 22,100 -1,260 Descending Miami Center
01:02PM 25.9158 -78.7278 296° West 456 525 20,800 -1,080 Descending Miami Center
01:03PM 25.9789 -78.8467 301° West 451 519 20,000 -420 Descending Miami Center
01:04PM 26.0383 -78.9472 303° West 446 513 20,000 -480 Level Miami Center
01:05PM 26.0992 -79.0569 302° West 433 498 19,100 -2,100 Descending Miami Center
01:06PM 26.1603 -79.1600 303° West 415 478 15,800 -3,180 Descending Miami Center
01:07PM 26.2172 -79.2631 302° West 404 465 12,800 -2,940 Descending Miami Center
01:08PM 26.2681 -79.3542 302° West 372 428 10,000 -2,760 Descending Miami Center
01:09PM 26.3125 -79.4342 302° West 318 366 7,300 -2,460 Descending Miami Center
01:10PM 26.3631 -79.5208 303° West 302 348 5,100 -1,200 Descending Miami Center
01:11PM 26.3994 -79.5867 302° West 295 339 5,000 -60 Descending Miami Center
01:12PM 26.4481 -79.6736 302° West 295 339 5,000 -360 Level Miami Center
01:13PM 26.4675 -79.7461 287° West 290 334 4,300 -540 Descending Miami Center
01:14PM 26.4906 -79.8417 285° West 290 334 4,000 -180 Descending Miami Center
01:15PM 26.5078 -79.9211 284° West 290 334 4,000  Level Miami Center
01:16PM 26.5289 -80.0144 284° West 290 334 4,000  Level Miami Center
01:17PM 26.5439 -80.0939 282° West 285 328 4,000  Level Miami Center
01:18PM 26.5525 -80.1683 277° West 266 306 4,000  Level Miami Center
01:19PM 26.5717 -80.2456 286° West 240 276 4,000  Level Miami Center
01:21PM 26.6574 -80.0964 51° Northeast  Level FlightAware Approximate
01:28PM 26.6667 -80.0833 North  Level FlightAware Approximate
01:29PM 26.6832 -80.0956 North  Level Estimated
01:30PM 26.6832 -80.0956 North  Level Estimated
01:31PM 26.6832 -80.0956 North  Level Estimated
01:32PM 26.6832 -80.0956 North  Level Estimated
01:33PM 26.6832 -80.0956 North  Level Estimated
01:34PM 26.6832 -80.0956 North  Level Estimated